Time;durP1;ratioP1;P1;durP2;ratioP2;P2;SDS_P1;SDS_P2;PMS_P1;PMS_P2;Temp;Humidity;BMP_temperature;BMP_pressure;BME280_temperature;BME280_humidity;BME280_pressure;Samples;Min_cycle;Max_cycle;Signal;HPM_P1;HPM_P2
2023/01/06 00:00:13;;;;;;;3.83;2.40;;;;;;;;;;5030253;28;20115;-77
2023/01/06 00:02:40;;;;;;;3.97;2.00;;;;;;;;;;5030028;28;20460;-77
2023/01/06 00:05:08;;;;;;;2.72;1.75;;;;;;;;;;5030487;28;20437;-76
2023/01/06 00:07:35;;;;;;;3.65;1.75;;;;;;;;;;5030087;28;20049;-76
2023/01/06 00:10:02;;;;;;;3.40;1.80;;;;;;;;;;5030340;28;20060;-77
2023/01/06 00:12:29;;;;;;;4.10;2.10;;;;;;;;;;5011780;28;20578;-76
2023/01/06 00:14:58;;;;;;;3.83;1.83;;;;;;;;;;5014089;28;20475;-76
2023/01/06 00:17:25;;;;;;;3.25;1.67;;;;;;;;;;5014129;28;20069;-76
2023/01/06 00:19:52;;;;;;;2.50;1.70;;;;;;;;;;5014086;28;20164;-76
2023/01/06 00:22:20;;;;;;;3.13;2.03;;;;;;;;;;5013489;28;20141;-77
2023/01/06 00:24:47;;;;;;;3.20;1.90;;;;;;;;;;5014046;28;20046;-76
2023/01/06 00:27:14;;;;;;;3.13;1.77;;;;;;;;;;5032484;28;20049;-76
2023/01/06 00:29:41;;;;;;;3.30;1.70;;;;;;;;;;5033844;28;20049;-76
2023/01/06 00:32:09;;;;;;;2.33;1.67;;;;;;;;;;5033641;28;20140;-76
2023/01/06 00:34:36;;;;;;;2.97;1.60;;;;;;;;;;5033630;28;20136;-76
2023/01/06 00:37:03;;;;;;;3.80;1.88;;;;;;;;;;5032764;28;20051;-76
2023/01/06 00:39:31;;;;;;;3.45;1.75;;;;;;;;;;5033735;28;20478;-77
2023/01/06 00:42:04;;;;;;;2.95;1.92;;;;;;;;;;5032937;28;20582;-76
2023/01/06 00:44:31;;;;;;;2.50;1.60;;;;;;;;;;5033043;28;20053;-77
2023/01/06 00:46:58;;;;;;;3.45;1.85;;;;;;;;;;5033408;28;20061;-76
2023/01/06 00:49:26;;;;;;;3.33;2.10;;;;;;;;;;5033136;28;20059;-77
2023/01/06 00:51:53;;;;;;;2.03;1.50;;;;;;;;;;5033451;28;20140;-77
2023/01/06 00:54:20;;;;;;;2.95;1.73;;;;;;;;;;5032884;28;20045;-76
2023/01/06 00:56:48;;;;;;;2.30;1.60;;;;;;;;;;5032236;28;20132;-76
2023/01/06 00:59:15;;;;;;;3.53;1.92;;;;;;;;;;5033153;28;20088;-76
2023/01/06 01:01:43;;;;;;;3.20;1.92;;;;;;;;;;5033349;28;20059;-76
2023/01/06 01:04:10;;;;;;;2.17;1.67;;;;;;;;;;5032930;28;20410;-77
2023/01/06 01:06:38;;;;;;;3.13;1.88;;;;;;;;;;5032997;28;20057;-76
2023/01/06 01:09:06;;;;;;;3.42;1.98;;;;;;;;;;5033191;28;20132;-76
2023/01/06 01:14:18;;;;;;;3.60;2.20;;;;;;;;;;5013168;28;20045;-76
2023/01/06 01:16:46;;;;;;;3.45;2.15;;;;;;;;;;5012764;28;20125;-76
2023/01/06 01:19:13;;;;;;;4.15;2.10;;;;;;;;;;5013102;28;20053;-76
2023/01/06 01:21:41;;;;;;;3.92;2.08;;;;;;;;;;5013018;28;20053;-77
2023/01/06 01:24:08;;;;;;;3.00;2.15;;;;;;;;;;5013850;28;20399;-76
2023/01/06 01:26:35;;;;;;;4.15;2.50;;;;;;;;;;5032543;28;20065;-77
2023/01/06 01:29:02;;;;;;;5.40;2.20;;;;;;;;;;5032409;28;20136;-77
2023/01/06 01:31:29;;;;;;;2.70;1.73;;;;;;;;;;5032806;28;20056;-76
2023/01/06 01:33:57;;;;;;;3.35;2.22;;;;;;;;;;5031682;28;20140;-76
2023/01/06 01:36:24;;;;;;;2.58;1.80;;;;;;;;;;5031705;28;20049;-76
2023/01/06 01:38:52;;;;;;;3.72;2.00;;;;;;;;;;5031595;28;20064;-77
2023/01/06 01:41:21;;;;;;;2.65;1.92;;;14.80;75.80;;;;;;5032300;28;20057;-76
2023/01/06 01:43:48;;;;;;;2.95;1.95;;;;;;;;;;5032216;28;20510;-76
2023/01/06 01:46:17;;;;;;;3.55;2.03;;;14.70;74.00;;;;;;5032263;28;20053;-76
2023/01/06 01:48:44;;;;;;;3.08;1.92;;;;;;;;;;5032299;28;20051;-76
2023/01/06 01:51:13;;;;;;;3.15;1.92;;;14.70;73.90;;;;;;5032049;28;20140;-75
2023/01/06 01:53:40;;;;;;;2.53;1.90;;;14.70;75.80;;;;;;5031499;28;20741;-76
2023/01/06 01:56:10;;;;;;;3.30;1.83;;;;;;;;;;5031824;28;20049;-76
2023/01/06 01:58:37;;;;;;;3.17;1.95;;;;;;;;;;5033174;28;20056;-76
2023/01/06 02:01:04;;;;;;;2.97;1.70;;;;;;;;;;5031978;28;20067;-76
2023/01/06 02:03:31;;;;;;;2.63;1.65;;;;;;;;;;5031859;28;20136;-77
2023/01/06 02:06:00;;;;;;;2.65;1.85;;;;;;;;;;5031958;28;20059;-76
2023/01/06 02:08:29;;;;;;;2.38;1.77;;;14.70;74.20;;;;;;5031801;28;20045;-76
2023/01/06 02:10:57;;;;;;;2.42;1.70;;;;;;;;;;5030344;28;20414;-76
2023/01/06 02:13:25;;;;;;;2.80;1.60;;;;;;;;;;5019083;28;20081;-76
2023/01/06 02:15:54;;;;;;;2.20;1.60;;;14.70;75.80;;;;;;5011665;28;20049;-76
2023/01/06 02:18:26;;;;;;;3.22;1.70;;;;;;;;;;5011701;28;20430;-77
2023/01/06 02:21:00;;;;;;;1.90;1.60;;;;;;;;;;5012121;28;20049;-77
2023/01/06 02:24:07;;;;;;;2.17;1.70;;;14.60;75.80;;;;;;5011631;28;20136;-77
2023/01/06 02:26:54;;;;;;;2.35;1.50;;;;;;;;;;5011887;28;20054;-77
2023/01/06 02:29:49;;;;;;;2.50;1.60;;;14.70;75.90;;;;;;5011777;28;20045;-76
2023/01/06 02:32:20;;;;;;;2.67;1.60;;;;;;;;;;5011663;28;20164;-77
2023/01/06 02:34:49;;;;;;;2.38;1.50;;;;;;;;;;5011457;28;20056;-76
2023/01/06 02:37:25;;;;;;;2.92;1.67;;;14.70;75.40;;;;;;5022485;28;20041;-77
2023/01/06 02:39:57;;;;;;;2.38;1.67;;;;;;;;;;5031466;28;20144;-77
2023/01/06 02:42:26;;;;;;;2.33;1.50;;;;;;;;;;5028837;28;20056;-76
2023/01/06 02:44:58;;;;;;;3.05;1.60;;;14.70;75.80;;;;;;5011574;28;20470;-76
2023/01/06 02:47:30;;;;;;;2.58;1.50;;;14.60;73.80;;;;;;5011196;28;20119;-77
2023/01/06 02:49:58;;;;;;;1.65;1.42;;;14.60;75.60;;;;;;5011323;28;20057;-76
2023/01/06 02:52:27;;;;;;;1.83;1.50;;;;;;;;;;5011105;28;20056;-77
2023/01/06 02:54:55;;;;;;;3.25;1.70;;;;;;;;;;5011511;28;20509;-76
2023/01/06 02:57:23;;;;;;;2.03;1.35;;;;;;;;;;5031043;28;20137;-77
2023/01/06 02:59:51;;;;;;;2.97;1.70;;;;;;;;;;5030730;28;20049;-77
2023/01/06 03:02:19;;;;;;;2.80;1.50;;;;;;;;;;5031034;28;20045;-76
2023/01/06 03:04:47;;;;;;;1.90;1.40;;;;;;;;;;5030750;28;20478;-76
2023/01/06 03:07:14;;;;;;;2.67;1.63;;;;;;;;;;5031049;28;20128;-76
2023/01/06 03:09:41;;;;;;;2.50;1.42;;;;;;;;;;5029893;28;20506;-76
2023/01/06 03:12:09;;;;;;;2.10;1.50;;;;;;;;;;5010925;28;20509;-76
2023/01/06 03:14:37;;;;;;;1.75;1.52;;;;;;;;;;5010912;28;20056;-76
2023/01/06 03:17:04;;;;;;;2.67;1.40;;;;;;;;;;5010687;28;20525;-76
2023/01/06 03:19:31;;;;;;;1.73;1.40;;;;;;;;;;5011006;28;20060;-76
2023/01/06 03:22:00;;;;;;;2.10;1.50;;;;;;;;;;5010666;28;20089;-76
2023/01/06 03:24:27;;;;;;;3.67;1.83;;;;;;;;;;5011159;28;20046;-77
2023/01/06 03:26:54;;;;;;;1.45;1.10;;;;;;;;;;5030669;28;20052;-76
2023/01/06 03:29:21;;;;;;;2.33;1.50;;;;;;;;;;5030673;28;20064;-76
2023/01/06 03:31:53;;;;;;;2.38;1.50;;;14.50;76.00;;;;;;5030461;28;20053;-76
2023/01/06 03:34:22;;;;;;;2.03;1.40;;;;;;;;;;5030462;28;20141;-76
2023/01/06 03:36:50;;;;;;;2.17;1.30;;;;;;;;;;5030118;28;20140;-77
2023/01/06 03:39:19;;;;;;;1.92;1.50;;;;;;;;;;5029802;28;20430;-76
2023/01/06 03:44:34;;;;;;;2.40;1.40;;;14.50;74.80;;;;;;5030308;28;20658;-76
2023/01/06 03:47:05;;;;;;;2.17;1.45;;;14.60;76.10;;;;;;5030531;28;20053;-76
2023/01/06 03:49:32;;;;;;;2.03;1.27;;;;;;;;;;5033955;28;20057;-76
2023/01/06 03:51:59;;;;;;;2.28;1.50;;;;;;;;;;5034473;28;20053;-76
2023/01/06 03:54:31;;;;;;;2.15;1.42;;;;;;;;;;5033784;28;20045;-76
2023/01/06 03:56:59;;;;;;;2.17;1.40;;;;;;;;;;5034454;28;20479;-76
2023/01/06 03:59:27;;;;;;;2.17;1.20;;;;;;;;;;5034121;28;20409;-76
2023/01/06 04:01:54;;;;;;;1.88;1.50;;;;;;;;;;5034018;28;20388;-76
2023/01/06 04:04:21;;;;;;;1.90;1.25;;;;;;;;;;5034322;28;20474;-77
2023/01/06 04:06:48;;;;;;;2.95;1.30;;;;;;;;;;5034412;28;20471;-76
2023/01/06 04:09:15;;;;;;;1.70;1.20;;;;;;;;;;5028499;28;20406;-76
2023/01/06 04:14:43;;;;;;;2.33;1.55;;;;;;;;;;4957676;28;20059;-76
2023/01/06 04:17:10;;;;;;;2.30;1.40;;;;;;;;;;4957795;28;20072;-75
2023/01/06 04:19:37;;;;;;;1.98;1.30;;;;;;;;;;4980514;28;20136;-77
2023/01/06 04:22:04;;;;;;;2.65;1.40;;;;;;;;;;5021981;28;20049;-76
2023/01/06 04:24:31;;;;;;;1.70;1.20;;;;;;;;;;5033951;28;20056;-76
2023/01/06 04:26:59;;;;;;;1.40;1.20;;;;;;;;;;5035014;28;20144;-77
2023/01/06 04:29:26;;;;;;;1.60;1.20;;;;;;;;;;5033993;28;20152;-76
2023/01/06 04:31:53;;;;;;;2.15;1.13;;;;;;;;;;5033677;28;20065;-76
2023/01/06 04:34:20;;;;;;;1.67;1.20;;;;;;;;;;5034695;28;20049;-76
2023/01/06 04:36:47;;;;;;;1.63;1.20;;;;;;;;;;5032972;28;20060;-77
2023/01/06 04:39:14;;;;;;;1.55;1.30;;;;;;;;;;5033110;28;20056;-76
2023/01/06 04:41:41;;;;;;;1.98;1.23;;;;;;;;;;5033273;28;20056;-76
2023/01/06 04:44:10;;;;;;;1.63;1.20;;;;;;;;;;5033210;28;20053;-76
2023/01/06 04:46:37;;;;;;;1.85;1.40;;;;;;;;;;5033147;28;20063;-76
2023/01/06 04:49:04;;;;;;;1.63;1.27;;;;;;;;;;5033109;28;20045;-77
2023/01/06 04:51:31;;;;;;;2.13;1.20;;;;;;;;;;5033074;28;20104;-76
2023/01/06 04:53:58;;;;;;;2.13;1.33;;;;;;;;;;5032325;28;20053;-76
2023/01/06 04:56:25;;;;;;;1.30;1.20;;;;;;;;;;5033192;28;20049;-76
2023/01/06 04:58:54;;;;;;;2.35;1.30;;;;;;;;;;5032638;28;20073;-76
2023/01/06 05:01:23;;;;;;;1.75;1.35;;;;;;;;;;5033238;28;20045;-76
2023/01/06 05:03:50;;;;;;;1.88;1.27;;;;;;;;;;5032853;28;20049;-76
2023/01/06 05:06:17;;;;;;;1.48;1.20;;;;;;;;;;5032738;28;20064;-77
2023/01/06 05:08:44;;;;;;;2.08;1.30;;;;;;;;;;5023502;28;20049;-76
2023/01/06 05:11:11;;;;;;;1.90;1.40;;;;;;;;;;5013231;28;20787;-77
2023/01/06 05:13:39;;;;;;;1.90;1.33;;;;;;;;;;5013171;28;20060;-77
2023/01/06 05:16:06;;;;;;;2.90;1.38;;;;;;;;;;5012661;28;20056;-76
2023/01/06 05:18:35;;;;;;;1.48;1.20;;;;;;;;;;5023048;28;20049;-75
2023/01/06 05:21:02;;;;;;;2.13;1.40;;;;;;;;;;5034069;28;20051;-76
2023/01/06 05:23:29;;;;;;;1.63;1.33;;;;;;;;;;5032013;28;20570;-77
2023/01/06 05:25:56;;;;;;;1.55;1.35;;;;;;;;;;5032697;28;20482;-76
2023/01/06 05:28:23;;;;;;;1.33;1.23;;;;;;;;;;5032575;28;20058;-77
2023/01/06 05:30:50;;;;;;;1.30;1.10;;;;;;;;;;5032871;28;20069;-76
2023/01/06 05:33:17;;;;;;;1.73;1.27;;;;;;;;;;5032388;28;20053;-76
2023/01/06 05:35:46;;;;;;;1.90;1.50;;;;;;;;;;5032803;28;20057;-76
2023/01/06 05:38:13;;;;;;;1.40;1.30;;;;;;;;;;5032992;28;20049;-77
2023/01/06 05:40:40;;;;;;;1.50;1.30;;;;;;;;;;5032267;28;20053;-77
2023/01/06 05:43:07;;;;;;;1.48;1.30;;;;;;;;;;5032277;28;20132;-77
2023/01/06 05:45:34;;;;;;;1.55;1.27;;;;;;;;;;5032316;28;20053;-77
2023/01/06 05:48:01;;;;;;;1.42;1.08;;;;;;;;;;5032511;28;20057;-77
2023/01/06 05:50:28;;;;;;;2.10;1.20;;;;;;;;;;5032318;28;20053;-75
2023/01/06 05:52:57;;;;;;;1.95;1.30;;;;;;;;;;5031343;28;20053;-76
2023/01/06 05:55:24;;;;;;;2.00;1.30;;;;;;;;;;5018688;28;20057;-77
2023/01/06 05:57:51;;;;;;;1.70;1.30;;;;;;;;;;5012252;28;20056;-76
2023/01/06 06:00:18;;;;;;;1.92;1.20;;;;;;;;;;5012465;28;20060;-76
2023/01/06 06:02:45;;;;;;;1.27;1.08;;;;;;;;;;5011884;28;20060;-76
2023/01/06 06:05:12;;;;;;;1.38;1.10;;;;;;;;;;5012404;28;20056;-77
2023/01/06 06:07:39;;;;;;;1.33;1.23;;;;;;;;;;5013315;28;20060;-76
2023/01/06 06:10:08;;;;;;;1.15;1.05;;;;;;;;;;5011763;28;20053;-76
2023/01/06 06:12:35;;;;;;;1.70;1.20;;;;;;;;;;5011782;28;20245;-76
2023/01/06 06:15:02;;;;;;;2.13;1.30;;;;;;;;;;5023795;28;20057;-77
2023/01/06 06:17:29;;;;;;;1.85;1.35;;;;;;;;;;5031917;28;20140;-76
2023/01/06 06:19:56;;;;;;;1.63;1.10;;;;;;;;;;5031444;28;20049;-77
2023/01/06 06:22:23;;;;;;;1.27;1.17;;;;;;;;;;5031636;28;20144;-76
2023/01/06 06:24:50;;;;;;;1.77;1.33;;;;;;;;;;5031065;28;20140;-76
2023/01/06 06:27:19;;;;;;;1.10;1.00;;;;;;;;;;5031398;28;20053;-77
2023/01/06 06:29:46;;;;;;;1.35;1.13;;;;;;;;;;5031630;28;20045;-77
2023/01/06 06:32:13;;;;;;;2.88;1.50;;;;;;;;;;5031012;28;20140;-77
2023/01/06 06:34:40;;;;;;;1.58;1.20;;;;;;;;;;5031450;28;20056;-76
2023/01/06 06:37:07;;;;;;;1.50;1.20;;;;;;;;;;5030660;28;20136;-76
2023/01/06 06:39:34;;;;;;;1.55;1.20;;;;;;;;;;5030567;28;20052;-76
2023/01/06 06:42:02;;;;;;;1.40;1.30;;;;;;;;;;5031232;28;20058;-74
2023/01/06 06:44:30;;;;;;;1.88;1.25;;;;;;;;;;5030985;28;20422;-76
2023/01/06 06:46:58;;;;;;;2.03;1.33;;;;;;;;;;5031243;28;20083;-77
2023/01/06 06:49:25;;;;;;;1.60;1.40;;;;;;;;;;5030868;28;20056;-77
2023/01/06 06:51:52;;;;;;;1.50;1.30;;;;;;;;;;5031260;28;20120;-77
2023/01/06 06:54:19;;;;;;;1.35;1.25;;;;;;;;;;5030519;28;20060;-76
2023/01/06 06:56:46;;;;;;;1.83;1.30;;;;;;;;;;5031133;28;20132;-75
2023/01/06 06:59:13;;;;;;;1.33;1.15;;;;;;;;;;5030612;28;20045;-76
2023/01/06 07:01:42;;;;;;;2.08;1.20;;;;;;;;;;5031215;28;20057;-76
2023/01/06 07:04:09;;;;;;;1.63;1.10;;;;;;;;;;5030914;28;20049;-76
2023/01/06 07:06:36;;;;;;;1.65;1.20;;;;;;;;;;5031002;28;20506;-76
2023/01/06 07:09:03;;;;;;;1.50;1.20;;;;;;;;;;5016791;28;20054;-76
2023/01/06 07:11:30;;;;;;;1.50;1.20;;;;;;;;;;5025487;28;20075;-76
2023/01/06 07:13:57;;;;;;;1.52;1.42;;;;;;;;;;5030850;28;20132;-76
2023/01/06 07:16:25;;;;;;;1.40;1.30;;;;;;;;;;5030805;28;20131;-77
2023/01/06 07:18:53;;;;;;;1.58;1.10;;;;;;;;;;5030717;28;20049;-76
2023/01/06 07:21:21;;;;;;;2.33;1.20;;;;;;;;;;5030596;28;20478;-76
2023/01/06 07:23:48;;;;;;;1.20;1.10;;;;;;;;;;5030078;28;20512;-76
2023/01/06 07:26:15;;;;;;;2.03;1.20;;;;;;;;;;5030751;28;20565;-76
2023/01/06 07:28:42;;;;;;;1.40;1.15;;;;;;;;;;5030550;28;20054;-76
2023/01/06 07:31:09;;;;;;;2.40;1.10;;;;;;;;;;5030326;28;20049;-76
2023/01/06 07:33:36;;;;;;;1.45;1.20;;;;;;;;;;5030131;28;20140;-76
2023/01/06 07:36:05;;;;;;;1.58;1.40;;;;;;;;;;5030001;28;20053;-76
2023/01/06 07:38:32;;;;;;;1.70;1.20;;;;;;;;;;5031155;28;20060;-76
2023/01/06 07:41:00;;;;;;;1.40;1.20;;;;;;;;;;5030604;28;20061;-77
2023/01/06 07:43:27;;;;;;;1.15;1.05;;;;;;;;;;5030454;28;20491;-77
2023/01/06 07:45:54;;;;;;;1.27;1.17;;;;;;;;;;5021211;28;20487;-76
2023/01/06 07:48:21;;;;;;;1.35;1.20;;;;;;;;;;5020432;28;20630;-76
2023/01/06 07:50:48;;;;;;;1.27;1.10;;;;;;;;;;5014220;28;20082;-76
2023/01/06 07:53:16;;;;;;;1.30;1.13;;;;;;;;;;5010178;28;20056;-76
2023/01/06 07:55:43;;;;;;;1.50;1.30;;;;;;;;;;5017861;28;20064;-76
2023/01/06 07:58:10;;;;;;;1.92;1.20;;;;;;;;;;5030577;28;20065;-76
2023/01/06 08:00:37;;;;;;;1.42;1.10;;;;;;;;;;5013730;28;20125;-76
2023/01/06 08:03:05;;;;;;;1.33;1.20;;;;;;;;;;5010126;28;20056;-76
2023/01/06 08:05:32;;;;;;;1.35;1.25;;;;;;;;;;5010712;28;20054;-76
2023/01/06 08:07:59;;;;;;;1.80;1.20;;;;;;;;;;5010485;28;20132;-76
2023/01/06 08:10:27;;;;;;;1.98;1.13;;;;;;;;;;5015938;28;20124;-76
2023/01/06 08:12:54;;;;;;;1.20;1.10;;;;;;;;;;5019343;28;20052;-75
2023/01/06 08:15:22;;;;;;;1.40;1.00;;;;;;;;;;5021494;28;20057;-76
2023/01/06 08:17:52;;;;;;;1.70;1.23;;;;;;;;;;5020147;28;20058;-76
2023/01/06 08:20:19;;;;;;;1.17;1.08;;;;;;;;;;5021132;28;20541;-76
2023/01/06 08:22:47;;;;;;;1.20;1.05;;;;;;;;;;5019616;28;20060;-76
2023/01/06 08:25:14;;;;;;;1.40;1.10;;;;;;;;;;5019073;28;20060;-77
2023/01/06 08:27:42;;;;;;;1.13;1.02;;;;;;;;;;5021120;28;20049;-77
2023/01/06 08:30:10;;;;;;;1.17;0.90;;;;;;;;;;5019697;28;20487;-76
2023/01/06 08:32:37;;;;;;;1.20;1.10;;;;;;;;;;5019817;28;20477;-76
2023/01/06 08:35:04;;;;;;;1.10;1.00;;;;;;;;;;5021467;28;20479;-76
2023/01/06 08:37:31;;;;;;;1.10;1.00;;;;;;;;;;5024530;28;20042;-77
2023/01/06 08:39:58;;;;;;;2.08;1.23;;;;;;;;;;5024870;28;20410;-77
2023/01/06 08:42:25;;;;;;;1.50;1.10;;;;;;;;;;5022531;28;20398;-77
2023/01/06 08:44:53;;;;;;;1.58;1.00;;;;;;;;;;5024914;28;20419;-76
2023/01/06 08:47:20;;;;;;;1.20;1.00;;;;;;;;;;5022258;28;20384;-77
2023/01/06 08:49:47;;;;;;;0.90;0.90;;;;;;;;;;5027401;28;20146;-76
2023/01/06 08:52:15;;;;;;;0.80;0.80;;;;;;;;;;5027177;28;20086;-76
2023/01/06 08:54:42;;;;;;;0.98;0.90;;;;;;;;;;5023127;28;20128;-76
2023/01/06 08:57:10;;;;;;;1.35;1.10;;;;;;;;;;5021736;28;20145;-77
2023/01/06 08:59:37;;;;;;;0.98;0.90;;;;;;;;;;5023662;28;20125;-76
2023/01/06 09:02:05;;;;;;;0.90;0.90;;;;;;;;;;5022152;28;20124;-76
2023/01/06 09:04:32;;;;;;;1.80;0.90;;;;;;;;;;5022810;28;20442;-76
2023/01/06 09:06:59;;;;;;;1.30;0.80;;;;;;;;;;5022363;28;20441;-76
2023/01/06 09:09:26;;;;;;;1.35;0.82;;;;;;;;;;5024295;28;20131;-76
2023/01/06 09:11:53;;;;;;;1.00;0.90;;;;;;;;;;5023446;28;20063;-76
2023/01/06 09:14:20;;;;;;;0.80;0.80;;;;;;;;;;5022669;28;20132;-76
2023/01/06 09:16:47;;;;;;;0.80;0.80;;;;;;;;;;5021632;28;20050;-76
2023/01/06 09:19:16;;;;;;;0.80;0.80;;;;;;;;;;5024332;28;20129;-76
2023/01/06 09:21:45;;;;;;;1.08;0.80;;;;;;;;;;5024330;28;20061;-77
2023/01/06 09:24:13;;;;;;;2.20;0.95;;;;;;;;;;5021583;28;20053;-76
2023/01/06 09:26:40;;;;;;;0.68;0.68;;;;;;;;;;5032770;28;20059;-77
2023/01/06 09:29:07;;;;;;;1.05;0.88;;;;;;;;;;5027063;28;20071;-76
2023/01/06 09:31:34;;;;;;;0.80;0.80;;;;;;;;;;5016850;28;20053;-76
2023/01/06 09:34:01;;;;;;;0.70;0.70;;;;;;;;;;5020527;28;20120;-75
2023/01/06 09:36:31;;;;;;;0.77;0.77;;;;;;;;;;5024409;28;20056;-76
2023/01/06 09:38:58;;;;;;;1.17;0.82;;;;;;;;;;5021818;28;20076;-77
2023/01/06 09:41:38;;;;;;;1.05;0.90;;;;;;;;;;5020308;28;20050;-76
2023/01/06 09:44:07;;;;;;;0.80;0.80;;;;;;;;;;5022208;28;20435;-77
2023/01/06 09:46:35;;;;;;;0.80;0.80;;;;;;;;;;5027507;28;20140;-76
2023/01/06 09:49:02;;;;;;;0.77;0.70;;;;;;;;;;5012013;28;20064;-76
2023/01/06 09:51:30;;;;;;;0.90;0.90;;;;;;;;;;5019230;28;20053;-77
2023/01/06 09:53:58;;;;;;;0.93;0.80;;;;;;;;;;5031262;28;20132;-76
2023/01/06 09:56:25;;;;;;;1.00;0.90;;;;;;;;;;5031213;28;20140;-76
2023/01/06 09:59:03;;;;;;;0.68;0.68;;;15.50;72.80;;;;;;5031271;28;20060;-76
2023/01/06 10:01:31;;;;;;;1.40;0.90;;;;;;;;;;5031403;28;20497;-76
2023/01/06 10:03:59;;;;;;;0.77;0.77;;;;;;;;;;5030762;28;20107;-76
2023/01/06 10:06:28;;;;;;;1.13;0.80;;;;;;;;;;5011418;28;20137;-76
2023/01/06 10:08:58;;;;;;;1.00;0.80;;;;;;;;;;5011339;28;20483;-76
2023/01/06 10:11:26;;;;;;;1.33;0.88;;;;;;;;;;5011621;28;20499;-76
2023/01/06 10:14:00;;;;;;;0.77;0.77;;;15.60;71.50;;;;;;5010835;28;20068;-76
2023/01/06 10:16:29;;;;;;;1.52;0.88;;;;;;;;;;5018935;28;20129;-76
2023/01/06 10:19:01;;;;;;;1.00;0.75;;;15.50;73.60;;;;;;5030595;28;20059;-76
2023/01/06 10:21:28;;;;;;;1.23;0.85;;;;;;;;;;5023865;28;20046;-76
2023/01/06 10:24:23;;;;;;;1.42;0.80;;;15.50;73.70;;;;;;5010938;28;20086;-76
2023/01/06 10:26:51;;;;;;;1.20;0.80;;;;;;;;;;5006024;28;20073;-76
2023/01/06 10:29:18;;;;;;;1.98;0.85;;;;;;;;;;5010814;28;20054;-76
2023/01/06 10:31:45;;;;;;;0.82;0.80;;;;;;;;;;5011074;28;20058;-76
2023/01/06 10:34:14;;;;;;;1.10;0.70;;;;;;;;;;5022660;28;20057;-76
2023/01/06 10:36:43;;;;;;;1.67;0.70;;;;;;;;;;5029861;28;20045;-76
2023/01/06 10:39:14;;;;;;;1.17;0.80;;;15.50;73.90;;;;;;5030640;28;20572;-76
2023/01/06 10:41:42;;;;;;;1.15;0.80;;;;;;;;;;5030741;28;20084;-76
2023/01/06 10:44:09;;;;;;;0.75;0.70;;;;;;;;;;5023828;28;20067;-76
2023/01/06 10:46:36;;;;;;;0.77;0.77;;;;;;;;;;5022428;28;20057;-77
2023/01/06 10:49:03;;;;;;;0.70;0.70;;;;;;;;;;5027059;28;20057;-76
2023/01/06 10:51:33;;;;;;;0.90;0.90;;;;;;;;;;5023554;28;20052;-77
2023/01/06 10:54:01;;;;;;;1.50;0.90;;;;;;;;;;5010504;28;20050;-76
2023/01/06 10:56:30;;;;;;;1.35;0.82;;;;;;;;;;5023993;28;20054;-78
2023/01/06 10:58:57;;;;;;;0.65;0.65;;;;;;;;;;5030401;28;20057;-76
2023/01/06 11:01:25;;;;;;;1.00;0.85;;;;;;;;;;5029672;28;20045;-76
2023/01/06 11:04:05;;;;;;;1.23;0.85;;;15.40;71.80;;;;;;5030210;28;20059;-76
2023/01/06 11:06:32;;;;;;;0.75;0.75;;;;;;;;;;5029404;28;20445;-76
2023/01/06 11:08:59;;;;;;;0.95;0.70;;;;;;;;;;5030068;28;20057;-76
2023/01/06 11:11:26;;;;;;;1.20;0.80;;;;;;;;;;5030134;28;20129;-76
2023/01/06 11:13:55;;;;;;;1.95;0.90;;;;;;;;;;5029804;28;20136;-76
2023/01/06 11:16:22;;;;;;;2.50;1.10;;;;;;;;;;5030332;28;20115;-75
2023/01/06 11:18:55;;;;;;;1.05;0.70;;;15.30;73.20;;;;;;5031007;28;20405;-76
2023/01/06 11:21:22;;;;;;;1.00;0.80;;;;;;;;;;5028946;28;20080;-75
2023/01/06 11:23:49;;;;;;;1.00;0.80;;;;;;;;;;5028913;28;20441;-76
2023/01/06 11:26:17;;;;;;;0.93;0.73;;;;;;;;;;5023043;28;20045;-75
2023/01/06 11:28:45;;;;;;;1.65;0.73;;;;;;;;;;5029066;28;20054;-75
2023/01/06 11:31:18;;;;;;;2.33;0.80;;;;;;;;;;5030157;28;20667;-76
2023/01/06 11:33:50;;;;;;;1.85;0.98;;;15.30;72.20;;;;;;5029396;28;20418;-75
2023/01/06 11:36:17;;;;;;;0.70;0.70;;;;;;;;;;5028969;28;20080;-76
2023/01/06 11:38:44;;;;;;;1.38;0.77;;;;;;;;;;5014983;28;20057;-76
2023/01/06 11:41:12;;;;;;;1.45;0.82;;;;;;;;;;5009823;28;20049;-76
2023/01/06 11:43:39;;;;;;;1.48;0.82;;;;;;;;;;5019444;28;20084;-76
2023/01/06 11:46:06;;;;;;;3.17;0.70;;;;;;;;;;5027167;28;20083;-76
2023/01/06 11:48:35;;;;;;;0.60;0.60;;;;;;;;;;5020273;28;20049;-76
2023/01/06 11:51:02;;;;;;;0.65;0.65;;;;;;;;;;5018965;28;20413;-76
2023/01/06 11:53:29;;;;;;;3.47;0.98;;;;;;;;;;5024931;28;20055;-77
2023/01/06 11:55:57;;;;;;;1.52;0.82;;;;;;;;;;5029522;28;20107;-77
2023/01/06 11:58:27;;;;;;;1.48;1.15;;;;;;;;;;5029369;28;20136;-76
2023/01/06 12:00:56;;;;;;;2.00;0.90;;;;;;;;;;5026490;28;20158;-76
2023/01/06 12:03:24;;;;;;;2.33;1.13;;;;;;;;;;5020858;28;20445;-76
2023/01/06 12:05:57;;;;;;;1.90;0.77;;;;;;;;;;5021980;28;20054;-76
2023/01/06 12:08:24;;;;;;;4.70;0.70;;;;;;;;;;5009716;28;20060;-76
2023/01/06 12:10:53;;;;;;;2.58;0.90;;;;;;;;;;5013692;28;20085;-75
2023/01/06 12:13:20;;;;;;;2.55;0.90;;;;;;;;;;5013576;28;20076;-76
2023/01/06 12:15:48;;;;;;;1.25;0.90;;;;;;;;;;5013367;28;20115;-76
2023/01/06 12:18:16;;;;;;;4.63;1.02;;;15.20;74.40;;;;;;5016224;28;20137;-76
2023/01/06 12:20:44;;;;;;;2.13;0.95;;;;;;;;;;5028235;28;20059;-76
2023/01/06 12:23:15;;;;;;;1.67;1.20;;;15.10;72.90;;;;;;5022985;28;20132;-76
2023/01/06 12:25:42;;;;;;;2.40;0.93;;;;;;;;;;5024574;28;20630;-76
2023/01/06 12:28:10;;;;;;;2.30;1.10;;;;;;;;;;5013035;28;20109;-75
2023/01/06 12:30:37;;;;;;;2.95;0.90;;;;;;;;;;5028055;28;20053;-76
2023/01/06 12:33:06;;;;;;;1.92;0.98;;;;;;;;;;5023150;28;20581;-75
2023/01/06 12:35:33;;;;;;;2.80;1.10;;;;;;;;;;5022048;28;20045;-75
2023/01/06 12:38:03;;;;;;;2.72;1.05;;;15.10;74.40;;;;;;5032549;28;20057;-76
2023/01/06 12:40:32;;;;;;;2.92;1.75;;;;;;;;;;5018304;28;20137;-76
2023/01/06 12:43:03;;;;;;;1.30;0.73;;;15.10;73.10;;;;;;5024578;28;20500;-76
2023/01/06 12:45:32;;;;;;;3.75;1.20;;;;;;;;;;5032538;28;20062;-75
2023/01/06 12:48:00;;;;;;;2.28;0.90;;;;;;;;;;5032343;28;20136;-76
2023/01/06 12:50:29;;;;;;;1.98;0.93;;;;;;;;;;5032585;28;20073;-75
2023/01/06 12:52:58;;;;;;;5.18;1.17;;;;;;;;;;5021685;28;20061;-76
2023/01/06 12:55:29;;;;;;;1.77;0.82;;;15.00;73.00;;;;;;5031358;28;20053;-74
2023/01/06 12:57:58;;;;;;;2.08;1.10;;;;;;;;;;5032419;28;20080;-76
2023/01/06 13:00:31;;;;;;;1.83;1.20;;;;;;;;;;5032520;28;20057;-76
2023/01/06 13:03:08;;;;;;;1.33;0.85;;;15.00;74.60;;;;;;5032034;28;20136;-76
2023/01/06 13:05:42;;;;;;;1.33;1.00;;;;;;;;;;5032454;28;20065;-76
2023/01/06 13:08:15;;;;;;;3.80;1.05;;;;;;;;;;5032191;28;20063;-75
2023/01/06 13:10:45;;;;;;;3.00;1.10;;;;;;;;;;5032424;28;20060;-75
2023/01/06 13:13:24;;;;;;;4.55;1.00;;;;;;;;;;5032172;28;20144;-75
2023/01/06 13:15:51;;;;;;;2.30;1.08;;;;;;;;;;5032048;28;20067;-76
2023/01/06 13:18:19;;;;;;;3.67;1.27;;;;;;;;;;5032304;28;20137;-76
2023/01/06 13:20:47;;;;;;;1.52;1.00;;;;;;;;;;5031757;28;20049;-75
2023/01/06 13:23:27;;;;;;;3.15;1.00;;;15.00;74.80;;;;;;5026414;28;20149;-75
2023/01/06 13:26:15;;;;;;;3.72;1.30;;;;;;;;;;5018456;28;20049;-75
2023/01/06 13:28:46;;;;;;;4.07;1.08;;;;;;;;;;4985600;28;20426;-75
2023/01/06 13:31:29;;;;;;;1.45;0.80;;;;;;;;;;5022056;28;20044;-76
2023/01/06 13:34:21;;;;;;;2.38;1.05;;;14.90;75.10;;;;;;5023140;28;20136;-76
2023/01/06 13:37:03;;;;;;;1.55;1.08;;;;;;;;;;5021475;28;20059;-76
2023/01/06 13:39:31;;;;;;;1.98;0.98;;;;;;;;;;5038568;28;20077;-77
2023/01/06 13:41:58;;;;;;;3.00;1.00;;;;;;;;;;5015918;28;20065;-77
2023/01/06 13:44:28;;;;;;;3.72;1.20;;;14.90;74.80;;;;;;5017727;28;20058;-76
2023/01/06 13:47:01;;;;;;;1.95;1.02;;;14.90;74.90;;;;;;5017584;28;20064;-75
2023/01/06 13:49:29;;;;;;;1.80;1.00;;;;;;;;;;5019887;28;20132;-76
2023/01/06 13:51:56;;;;;;;2.33;1.10;;;;;;;;;;5020449;28;20099;-74
2023/01/06 13:54:58;;;;;;;2.38;1.23;;;15.00;71.10;;;;;;5021097;28;20053;-73
2023/01/06 13:57:27;;;;;;;2.10;1.20;;;;;;;;;;5021754;28;20054;-74
2023/01/06 14:00:06;;;;;;;2.58;1.00;;;;;;;;;;5021052;28;20137;-73
2023/01/06 14:03:21;;;;;;;2.33;1.10;;;14.90;74.80;;;;;;5022014;28;20409;-73
2023/01/06 14:05:58;;;;;;;2.10;1.10;;;;;;;;;;5046711;28;20494;-74
2023/01/06 14:08:27;;;;;;;2.80;0.88;;;;;;;;;;5020890;28;20054;-74
2023/01/06 14:10:59;;;;;;;1.77;0.90;;;;;;;;;;5020556;28;20045;-74
2023/01/06 14:13:27;;;;;;;4.03;1.30;;;;;;;;;;5020768;28;20133;-74
2023/01/06 14:15:56;;;;;;;1.42;0.80;;;;;;;;;;5019395;28;20057;-74
2023/01/06 14:18:33;;;;;;;2.33;1.00;;;;;;;;;;5022161;28;20132;-75
2023/01/06 14:21:01;;;;;;;2.85;1.10;;;;;;;;;;5026757;28;20493;-74
2023/01/06 14:23:28;;;;;;;2.30;0.93;;;;;;;;;;5030619;28;20064;-74
2023/01/06 14:25:55;;;;;;;2.33;1.00;;;;;;;;;;5015254;28;20064;-75
2023/01/06 14:28:24;;;;;;;1.90;0.82;;;;;;;;;;5009667;28;20054;-75
2023/01/06 14:30:51;;;;;;;2.72;1.20;;;;;;;;;;5017746;28;20058;-75
2023/01/06 14:33:43;;;;;;;2.75;1.00;;;14.90;74.60;;;;;;5025024;28;20132;-77
2023/01/06 14:36:11;;;;;;;2.72;1.27;;;;;;;;;;5009802;28;20055;-75
2023/01/06 14:38:41;;;;;;;4.38;1.20;;;;;;;;;;5030706;28;20075;-75
2023/01/06 14:41:14;;;;;;;3.17;1.10;;;;;;;;;;5022920;28;20041;-75
2023/01/06 14:43:42;;;;;;;2.97;0.90;;;;;;;;;;5026803;28;20049;-75
2023/01/06 14:46:13;;;;;;;2.05;0.93;;;;;;;;;;5029830;28;20076;-75